Airports and Charts


LSZC - Buochs
Flughafeninformationen

(c) Picture by Sandy Siegenthaler

Deutsch
Buochs ist ein Flugplatz am nördlichen Rand der Alpen. Er wurde schon mehrmals für reale und virtuelle Sternflüge genutzt und mit der schönen Landschaft ringsherum lädt er auch zu normalen Flügen ein.

English
Buochs is an airport at the northern side of the Alps. It is often used for real as well as virtual radial flights. Furthermore, the beautiful scenery invites for some normal flights.

Runway
Identifier Approach Dimension Surface
07
(064°)
VISUAL 2000 x 40 m
(6562 x 131 ft)
Asphalt
25
(244°)
VISUAL

METEO Reports
METAR
LSZC
301220Z AUTO VRB03KT 9999 -DZ BKN024 OVC027 11/09 Q1012
LSZC
300020Z AUTO VRB02KT 9999 SCT023 SCT037 BKN042 09/09 Q1007 REDZ
TAF
TAF LSZC
300225Z 3003/3012 VRB02KT 7000 BKN020
PROB40 TEMPO 3003/3012 RA

Charts
Charts - LSZC
Buochs
  FilenameReleased
F Approach APP1 RNAV18.12.2016
F Approach APP2 VISUAL18.12.2016
F Arrival STAR ALL24.02.2022
F Departure SID ALL24.02.2022
F Ground GND1 AD18.12.2016
E VFR VFR Area Chart24.01.2021
E VFR VFR Charts24.01.2021

Sceneries
Sceneries - LSZC
Buochs
  FilenameReleased
E Freeware Buochs14.01.2015
E Freeware Buochs (FS2004)03.11.2013
E Freeware Buochs (X-Plane 10.25 and higher)21.01.2016
E Payware Airport Buochs X18.12.2016

Stations
KennzeichenNameFrequenz
LSAS_CTR Swiss Radar 134.600 MHz
LSAS_I_CTR Swiss Information 124.700 MHz
LSAZ_CTR Swiss Radar 133.050 MHz
LSAZ_E_CTR Swiss Radar 133.900 MHz
LSAZ_N_CTR Swiss Radar 135.150 MHz
LSAZ_S_CTR Swiss Radar 128.050 MHz
LSAZ_W_CTR Swiss Radar 135.675 MHz
LSZC_TWR Buochs Tower 119.625 MHz


 

online atc

bookings overview

events RSS

news RSS

  • Summer Break 2022

    07/03/22 20:31:57 z

    After a busy first half of the year, vACC Switzerland is proud of its successful ...

  • Cross The Land 2022 Westbound Voting

    12/13/21 15:02:52 z

    The CTL team are pleased to announce that voting is open for our Westbound event ...

  • Summer Break 2021

    06/26/21 15:03:11 z

    Dear Pilots and Controller As holiday season is approaching in Switzerland ...